createdAt,value
2018-05-02T00:01:14.369Z,4.67
2018-05-02T00:03:42.451Z,4.57
2018-05-02T00:06:10.957Z,5.27
2018-05-02T00:08:39.390Z,22.93
2018-05-02T00:11:08.233Z,4.17
2018-05-02T00:13:36.337Z,4.63
2018-05-02T00:16:05.137Z,4.80
2018-05-02T00:18:33.178Z,4.43
2018-05-02T00:21:01.542Z,4.80
2018-05-02T00:23:30.121Z,4.10
2018-05-02T00:25:58.144Z,4.60
2018-05-02T00:28:26.294Z,4.40
2018-05-02T00:30:54.602Z,13.53
2018-05-02T00:33:22.654Z,4.37
2018-05-02T00:35:50.815Z,6.50
2018-05-02T00:38:19.126Z,4.50
2018-05-02T00:40:47.184Z,8.93
2018-05-02T00:43:15.428Z,4.43
2018-05-02T00:45:44.989Z,5.20
2018-05-02T00:48:13.010Z,4.63
2018-05-02T00:50:41.471Z,4.60
2018-05-02T00:53:10.004Z,4.60
2018-05-02T00:55:38.067Z,3.93
2018-05-02T00:58:06.301Z,5.10
2018-05-02T01:00:34.827Z,4.33
2018-05-02T01:03:02.877Z,4.17
2018-05-02T01:05:31.442Z,4.40
2018-05-02T01:08:00.907Z,4.50
2018-05-02T01:10:28.961Z,4.40
2018-05-02T01:12:57.499Z,4.70
2018-05-02T01:15:26.217Z,4.50
2018-05-02T01:17:55.009Z,4.10
2018-05-02T01:20:23.520Z,5.03
2018-05-02T01:22:52.089Z,4.33
2018-05-02T01:25:20.147Z,4.70
2018-05-02T01:27:48.677Z,4.17
2018-05-02T01:30:17.227Z,4.20
2018-05-02T01:32:45.278Z,4.40
2018-05-02T01:35:13.491Z,5.30
2018-05-02T01:37:41.702Z,6.47
2018-05-02T01:40:09.758Z,4.20
2018-05-02T01:42:38.011Z,4.23
2018-05-02T01:45:06.397Z,4.20
2018-05-02T01:47:34.480Z,4.40
2018-05-02T01:50:03.169Z,3.80
2018-05-02T01:52:31.700Z,3.93
2018-05-02T01:54:59.786Z,3.80
2018-05-02T01:57:28.287Z,4.43
2018-05-02T01:59:56.840Z,4.07
2018-05-02T02:02:24.911Z,4.43
2018-05-02T02:04:53.446Z,7.40
2018-05-02T02:07:22.095Z,5.93
2018-05-02T02:09:50.113Z,4.40
2018-05-02T02:12:18.623Z,3.67
2018-05-02T02:14:47.108Z,4.43
2018-05-02T02:17:15.153Z,4.40
2018-05-02T02:19:43.392Z,4.37
2018-05-02T02:22:11.936Z,4.20
2018-05-02T02:24:40.001Z,4.20
2018-05-02T02:27:08.535Z,4.63
2018-05-02T02:29:37.063Z,5.07
2018-05-02T02:32:05.198Z,5.20
2018-05-02T02:34:33.359Z,4.90
2018-05-02T02:37:01.901Z,5.07
2018-05-02T02:39:29.950Z,5.80
2018-05-02T02:41:58.508Z,4.30
2018-05-02T02:44:27.224Z,4.80
2018-05-02T02:46:56.013Z,3.83
2018-05-02T02:49:24.563Z,4.07
2018-05-02T02:51:53.092Z,5.00
2018-05-02T02:54:21.132Z,4.20
2018-05-02T02:56:49.680Z,4.23
2018-05-02T02:59:17.886Z,3.80
2018-05-02T03:01:46.694Z,4.50
2018-05-02T03:04:15.134Z,4.37
2018-05-02T03:06:43.680Z,4.20
2018-05-02T03:09:11.733Z,4.10
2018-05-02T03:11:40.256Z,5.20
2018-05-02T03:14:08.464Z,4.50
2018-05-02T03:16:36.503Z,7.20
2018-05-02T03:19:04.802Z,4.57
2018-05-02T03:21:34.252Z,5.03
2018-05-02T03:24:02.307Z,4.60
2018-05-02T03:26:30.460Z,4.20
2018-05-02T03:28:58.957Z,4.23
2018-05-02T03:31:27.789Z,4.50
2018-05-02T03:33:56.298Z,4.30
2018-05-02T03:36:24.509Z,4.27
2018-05-02T03:38:52.567Z,3.60
2018-05-02T03:41:21.101Z,4.40
2018-05-02T03:43:49.267Z,5.50
2018-05-02T03:46:17.313Z,4.50
2018-05-02T03:48:45.408Z,4.47
2018-05-02T03:51:14.170Z,7.17
2018-05-02T03:53:42.226Z,3.97
2018-05-02T03:56:10.753Z,4.50
2018-05-02T03:58:39.299Z,4.70
2018-05-02T04:01:19.122Z,5.17
2018-05-02T04:04:00.043Z,4.87
2018-05-02T04:06:36.888Z,4.80
2018-05-02T04:09:05.138Z,4.77
2018-05-02T04:11:34.214Z,5.17
2018-05-02T04:14:02.596Z,4.37
2018-05-02T04:16:31.142Z,4.90
2018-05-02T04:18:59.176Z,4.50
2018-05-02T04:21:27.285Z,4.33
2018-05-02T04:23:55.651Z,4.63
2018-05-02T04:26:23.716Z,6.80
2018-05-02T04:28:52.248Z,4.63
2018-05-02T04:31:20.460Z,4.80
2018-05-02T04:33:48.510Z,5.50
2018-05-02T04:36:17.068Z,5.20
2018-05-02T04:38:45.609Z,4.77
2018-05-02T04:41:13.662Z,4.90
2018-05-02T04:43:42.207Z,5.37
2018-05-02T04:46:10.437Z,4.90
2018-05-02T04:48:38.486Z,4.80
2018-05-02T04:51:06.734Z,4.70
2018-05-02T04:53:35.269Z,5.20
2018-05-02T04:56:03.337Z,5.27
2018-05-02T04:58:31.861Z,4.87
2018-05-02T05:01:00.136Z,4.80
2018-05-02T05:03:28.207Z,4.47
2018-05-02T05:05:56.365Z,5.00
2018-05-02T05:08:25.114Z,6.17
2018-05-02T05:10:53.913Z,6.53
2018-05-02T05:13:22.121Z,4.47
2018-05-02T05:15:50.419Z,5.20
2018-05-02T05:18:18.470Z,10.97
2018-05-02T05:20:46.946Z,4.90
2018-05-02T05:23:15.132Z,4.40
2018-05-02T05:25:43.183Z,4.13
2018-05-02T05:28:11.592Z,4.47
2018-05-02T05:30:40.077Z,4.27
2018-05-02T05:33:08.148Z,4.50
2018-05-02T05:35:36.399Z,4.67
2018-05-02T05:38:04.733Z,6.83
2018-05-02T05:40:33.544Z,6.40
2018-05-02T05:43:02.059Z,4.73
2018-05-02T05:45:30.600Z,4.50
2018-05-02T05:47:58.651Z,6.17
2018-05-02T05:50:27.177Z,4.30
2018-05-02T05:52:55.739Z,4.30
2018-05-02T05:55:23.793Z,4.47
2018-05-02T05:57:52.325Z,10.43
2018-05-02T06:00:20.871Z,4.87
2018-05-02T06:02:48.922Z,5.00
2018-05-02T06:05:17.484Z,5.10
2018-05-02T06:07:46.801Z,4.80
2018-05-02T06:10:14.834Z,6.97
2018-05-02T06:12:43.071Z,4.90
2018-05-02T06:15:11.237Z,4.40
2018-05-02T06:17:39.293Z,5.00
2018-05-02T06:20:07.526Z,7.13
2018-05-02T06:22:36.276Z,8.13
2018-05-02T06:25:04.335Z,7.27
2018-05-02T06:27:32.874Z,4.60
2018-05-02T06:30:01.415Z,4.90
2018-05-02T06:32:29.464Z,6.63
2018-05-02T06:34:57.990Z,4.93
2018-05-02T06:37:26.738Z,4.37
2018-05-02T06:39:55.542Z,7.33
2018-05-02T06:42:24.048Z,4.47
2018-05-02T06:44:52.613Z,4.20
2018-05-02T06:47:20.669Z,4.10
2018-05-02T06:49:49.198Z,4.33
2018-05-02T06:52:17.390Z,8.17
2018-05-02T06:54:45.482Z,5.23
2018-05-02T06:57:13.878Z,4.57
2018-05-02T06:59:42.448Z,4.90
2018-05-02T07:02:11.244Z,9.43
2018-05-02T07:04:39.780Z,5.07
2018-05-02T07:07:08.391Z,5.73
2018-05-02T07:09:36.409Z,6.80
2018-05-02T07:12:04.632Z,4.00
2018-05-02T07:14:33.860Z,6.63
2018-05-02T07:17:01.920Z,4.87
2018-05-02T07:19:30.343Z,5.10
2018-05-02T07:21:58.773Z,4.80
2018-05-02T07:24:26.811Z,4.87
2018-05-02T07:26:55.236Z,6.90
2018-05-02T07:29:24.039Z,7.50
2018-05-02T07:31:52.119Z,4.77
2018-05-02T07:34:20.609Z,6.50
2018-05-02T07:36:48.764Z,4.90
2018-05-02T07:39:16.825Z,5.40
2018-05-02T07:41:45.133Z,5.30
2018-05-02T07:44:13.878Z,8.73
2018-05-02T07:46:42.680Z,5.17
2018-05-02T07:49:11.196Z,6.40
2018-05-02T07:51:39.746Z,5.20
2018-05-02T07:54:07.795Z,4.80
2018-05-02T07:56:36.370Z,4.40
2018-05-02T07:59:04.521Z,5.40
2018-05-02T08:01:32.581Z,4.67
2018-05-02T08:04:00.844Z,11.50
2018-05-02T08:06:29.103Z,5.77
2018-05-02T08:08:57.150Z,5.07
2018-05-02T08:11:25.676Z,5.13
2018-05-02T08:13:53.741Z,6.80
2018-05-02T08:16:21.847Z,5.20
2018-05-02T08:18:50.511Z,4.87
2018-05-02T08:21:18.574Z,6.00
2018-05-02T08:23:46.637Z,5.90
2018-05-02T08:26:15.030Z,5.20
2018-05-02T08:28:43.088Z,5.63
2018-05-02T08:31:11.182Z,5.33
2018-05-02T08:33:39.332Z,5.60
2018-05-02T08:36:07.402Z,9.20
2018-05-02T08:38:35.473Z,5.10
2018-05-02T08:41:03.849Z,5.70
2018-05-02T08:43:31.923Z,12.83
2018-05-02T08:45:59.995Z,5.47
2018-05-02T08:48:28.576Z,5.90
2018-05-02T08:50:56.646Z,6.37
2018-05-02T08:53:24.725Z,5.93
2018-05-02T08:55:53.096Z,6.47
2018-05-02T08:58:21.188Z,5.93
2018-05-02T09:00:49.244Z,6.10
2018-05-02T09:03:17.634Z,12.20
2018-05-02T09:05:45.699Z,10.10
2018-05-02T09:08:14.246Z,5.60
2018-05-02T09:10:42.758Z,5.80
2018-05-02T09:13:10.847Z,5.73
2018-05-02T09:15:38.959Z,6.37
2018-05-02T09:18:07.276Z,6.33
2018-05-02T09:20:35.345Z,6.23
2018-05-02T09:23:03.414Z,5.90
2018-05-02T09:25:31.793Z,5.50
2018-05-02T09:27:59.870Z,9.90
2018-05-02T09:30:27.931Z,8.67
2018-05-02T09:32:56.333Z,7.60
2018-05-02T09:35:24.411Z,6.40
2018-05-02T09:37:52.469Z,5.97
2018-05-02T09:40:20.848Z,6.33
2018-05-02T09:42:48.921Z,7.40
2018-05-02T09:45:16.983Z,6.70
2018-05-02T09:47:45.415Z,11.30
2018-05-02T09:50:14.228Z,6.60
2018-05-02T09:52:42.287Z,6.67
2018-05-02T09:55:10.823Z,7.07
2018-05-02T09:57:38.897Z,6.70
2018-05-02T10:00:07.730Z,7.50
2018-05-02T10:02:36.244Z,6.97
2018-05-02T10:05:04.309Z,6.90
2018-05-02T10:07:32.382Z,6.20
2018-05-02T10:10:01.257Z,9.53
2018-05-02T10:12:29.387Z,6.73
2018-05-02T10:14:57.388Z,6.83
2018-05-02T10:17:25.902Z,7.53
2018-05-02T10:19:53.966Z,8.93
2018-05-02T10:22:22.077Z,7.60
2018-05-02T10:24:51.361Z,7.97
2018-05-02T10:27:19.428Z,7.77
2018-05-02T10:29:47.501Z,8.73
2018-05-02T10:32:15.860Z,7.90
2018-05-02T10:34:43.922Z,10.43
2018-05-02T10:37:11.987Z,10.73
2018-05-02T10:39:40.194Z,9.07
2018-05-02T10:42:08.257Z,7.83
2018-05-02T10:44:36.325Z,7.17
2018-05-02T10:47:04.620Z,8.53
2018-05-02T10:49:32.688Z,8.37
2018-05-02T10:52:00.789Z,12.30
2018-05-02T10:54:29.436Z,8.73
2018-05-02T10:56:57.493Z,10.30
2018-05-02T10:59:25.599Z,8.10
2018-05-02T11:01:54.866Z,9.30
2018-05-02T11:04:22.938Z,8.23
2018-05-02T11:06:51.030Z,8.83
2018-05-02T11:09:19.395Z,8.83
2018-05-02T11:11:47.950Z,12.07
2018-05-02T11:14:16.043Z,11.70
2018-05-02T11:16:44.528Z,8.90
2018-05-02T11:19:12.594Z,14.77
2018-05-02T11:21:40.661Z,8.97
2018-05-02T11:24:09.056Z,9.27
2018-05-02T11:26:37.133Z,9.00
2018-05-02T11:29:05.196Z,9.67
2018-05-02T11:31:33.448Z,12.27
2018-05-02T11:34:01.504Z,9.37
2018-05-02T11:36:29.567Z,8.90
2018-05-02T11:38:58.099Z,12.07
2018-05-02T11:41:26.163Z,9.60
2018-05-02T11:43:54.251Z,12.50
2018-05-02T11:46:23.534Z,10.33
2018-05-02T11:48:51.601Z,10.27
2018-05-02T11:51:19.677Z,10.03
2018-05-02T11:53:48.067Z,15.57
2018-05-02T11:56:16.129Z,14.97
2018-05-02T11:58:44.202Z,16.10
2018-05-02T12:01:12.901Z,14.67
2018-05-02T12:03:41.721Z,12.57
2018-05-02T12:06:09.778Z,11.40
2018-05-02T12:08:38.350Z,11.47
2018-05-02T12:11:07.181Z,14.47
2018-05-02T12:13:35.868Z,9.90
2018-05-02T12:16:04.414Z,12.57
2018-05-02T12:18:32.448Z,11.13
2018-05-02T12:21:00.528Z,11.47
2018-05-02T12:23:29.225Z,11.50
2018-05-02T12:25:58.052Z,10.53
2018-05-02T12:28:26.119Z,11.10
2018-05-02T12:30:54.392Z,11.20
2018-05-02T12:33:22.462Z,11.40
2018-05-02T12:35:50.534Z,10.50
2018-05-02T12:38:19.180Z,10.57
2018-05-02T12:40:47.264Z,12.17
2018-05-02T12:43:15.314Z,10.10
2018-05-02T12:45:43.560Z,13.23
2018-05-02T12:48:11.633Z,12.07
2018-05-02T12:50:39.700Z,11.60
2018-05-02T12:53:08.209Z,21.00
2018-05-02T12:55:36.290Z,11.10
2018-05-02T12:58:04.350Z,11.43
2018-05-02T13:00:32.730Z,11.13
2018-05-02T13:03:00.826Z,11.80
2018-05-02T13:05:29.669Z,12.90
2018-05-02T13:07:58.172Z,11.40
2018-05-02T13:10:26.306Z,12.60
2018-05-02T13:12:54.330Z,11.63
2018-05-02T13:15:23.169Z,14.63
2018-05-02T13:17:51.243Z,12.23
2018-05-02T13:20:19.311Z,12.97
2018-05-02T13:22:47.553Z,13.37
2018-05-02T13:25:16.386Z,16.43
2018-05-02T13:27:44.453Z,12.90
2018-05-02T13:30:12.682Z,15.80
2018-05-02T13:32:41.515Z,12.50
2018-05-02T13:35:09.605Z,11.53
2018-05-02T13:37:38.109Z,11.90
2018-05-02T13:40:06.181Z,11.63
2018-05-02T13:42:34.273Z,13.37
2018-05-02T13:45:03.561Z,17.30
2018-05-02T13:47:32.398Z,12.53
2018-05-02T13:50:00.473Z,11.73
2018-05-02T13:52:29.020Z,18.17
2018-05-02T13:54:57.845Z,14.90
2018-05-02T13:57:25.989Z,14.17
2018-05-02T13:59:54.131Z,25.23
2018-05-02T14:02:22.193Z,25.67
2018-05-02T14:04:50.266Z,12.90
2018-05-02T14:07:18.682Z,13.67
2018-05-02T14:09:46.759Z,12.67
2018-05-02T14:12:14.823Z,11.87
2018-05-02T14:14:43.186Z,12.03
2018-05-02T14:17:12.626Z,13.03
2018-05-02T14:19:40.692Z,12.30
2018-05-02T14:22:09.230Z,11.67
2018-05-02T14:24:37.296Z,13.43
2018-05-02T14:27:05.373Z,15.03
2018-05-02T14:29:33.834Z,12.40
2018-05-02T14:32:01.905Z,15.63
2018-05-02T14:34:29.971Z,13.20
2018-05-02T14:36:58.595Z,15.83
2018-05-02T14:39:27.433Z,12.47
2018-05-02T14:41:55.539Z,17.40
2018-05-02T14:44:24.028Z,22.80
2018-05-02T14:46:52.848Z,12.30
2018-05-02T14:49:20.915Z,17.00
2018-05-02T14:51:49.299Z,13.57
2018-05-02T14:54:17.364Z,20.83
2018-05-02T14:56:45.429Z,19.80
2018-05-02T14:59:13.990Z,15.70
2018-05-02T15:01:42.833Z,15.33
2018-05-02T15:04:10.897Z,12.87
2018-05-02T15:06:39.447Z,18.50
2018-05-02T15:09:07.533Z,12.30
2018-05-02T15:11:35.601Z,12.73
2018-05-02T15:14:04.051Z,15.97
2018-05-02T15:16:32.118Z,13.40
2018-05-02T15:19:00.849Z,14.03
2018-05-02T15:21:29.393Z,13.43
2018-05-02T15:23:58.225Z,14.37
2018-05-02T15:26:26.304Z,12.97
2018-05-02T15:28:54.853Z,15.87
2018-05-02T15:31:22.917Z,12.03
2018-05-02T15:33:51.748Z,14.13
2018-05-02T15:36:19.997Z,11.70
2018-05-02T15:38:48.078Z,15.40
2018-05-02T15:41:16.155Z,12.10
2018-05-02T15:43:44.777Z,15.00
2018-05-02T15:46:12.855Z,17.53
2018-05-02T15:48:40.920Z,22.13
2018-05-02T15:51:09.052Z,17.57
2018-05-02T15:53:37.129Z,13.13
2018-05-02T15:56:05.233Z,11.37
2018-05-02T15:58:33.462Z,14.47
2018-05-02T16:01:01.457Z,13.30
2018-05-02T16:03:29.545Z,12.67
2018-05-02T16:05:58.027Z,12.53
2018-05-02T16:08:26.095Z,14.00
2018-05-02T16:10:54.160Z,12.10
2018-05-02T16:13:22.550Z,13.77
2018-05-02T16:15:50.623Z,16.07
2018-05-02T16:18:18.696Z,17.10
2018-05-02T16:20:47.739Z,11.20
2018-05-02T16:23:16.536Z,19.80
2018-05-02T16:25:44.622Z,23.53
2018-05-02T16:28:13.135Z,12.77
2018-05-02T16:30:41.192Z,13.03
2018-05-02T16:33:09.342Z,12.07
2018-05-02T16:35:37.660Z,15.70
2018-05-02T16:38:05.723Z,11.83
2018-05-02T16:40:33.806Z,12.80
2018-05-02T16:43:01.979Z,11.97
2018-05-02T16:45:30.035Z,11.00
2018-05-02T16:47:58.142Z,11.70
2018-05-02T16:50:27.297Z,14.10
2018-05-02T16:52:55.366Z,13.40
2018-05-02T16:55:23.436Z,12.97
2018-05-02T16:57:51.825Z,14.00
2018-05-02T17:00:19.895Z,16.00
2018-05-02T17:02:47.978Z,13.87
2018-05-02T17:05:16.348Z,12.97
2018-05-02T17:07:44.424Z,12.77
2018-05-02T17:10:12.498Z,11.83
2018-05-02T17:12:40.874Z,13.37
2018-05-02T17:15:08.927Z,13.00
2018-05-02T17:17:37.044Z,15.80
2018-05-02T17:20:05.387Z,10.57
2018-05-02T17:22:33.637Z,11.93
2018-05-02T17:25:01.709Z,15.30
2018-05-02T17:27:30.218Z,11.20
2018-05-02T17:29:58.282Z,13.10
2018-05-02T17:32:26.360Z,11.93
2018-05-02T17:34:54.764Z,12.83
2018-05-02T17:37:23.600Z,12.17
2018-05-02T17:39:51.671Z,12.33
2018-05-02T17:42:19.877Z,13.67
2018-05-02T17:44:47.958Z,11.87
2018-05-02T17:47:16.036Z,12.80
2018-05-02T17:49:45.011Z,15.43
2018-05-02T17:52:13.081Z,13.07
2018-05-02T17:54:41.156Z,11.53
2018-05-02T17:57:09.512Z,10.77
2018-05-02T17:59:37.589Z,11.10
2018-05-02T18:02:05.652Z,14.53
2018-05-02T18:04:34.037Z,12.40
2018-05-02T18:07:02.126Z,12.93
2018-05-02T18:09:30.791Z,12.83
2018-05-02T18:11:59.172Z,12.00
2018-05-02T18:14:27.244Z,14.43
2018-05-02T18:16:55.317Z,15.00
2018-05-02T18:19:23.454Z,12.83
2018-05-02T18:21:51.518Z,17.40
2018-05-02T18:24:20.004Z,15.00
2018-05-02T18:26:48.552Z,14.13
2018-05-02T18:29:17.382Z,18.17
2018-05-02T18:31:45.440Z,15.10
2018-05-02T18:34:13.824Z,16.57
2018-05-02T18:36:41.893Z,15.87
2018-05-02T18:39:09.962Z,15.57
2018-05-02T18:41:38.501Z,15.97
2018-05-02T18:44:06.582Z,14.03
2018-05-02T18:46:34.651Z,14.97
2018-05-02T18:49:03.953Z,16.50
2018-05-02T18:51:32.783Z,13.70
2018-05-02T18:54:00.851Z,14.40
2018-05-02T18:56:29.097Z,14.87
2018-05-02T18:58:57.919Z,19.33
2018-05-02T19:01:26.000Z,15.23
2018-05-02T19:03:54.551Z,14.30
2018-05-02T19:06:23.365Z,15.13
2018-05-02T19:08:51.434Z,19.30
2018-05-02T19:11:19.801Z,16.97
2018-05-02T19:13:53.637Z,14.73
2018-05-02T19:16:22.009Z,15.17
2018-05-02T19:18:55.769Z,16.17
2018-05-02T19:21:24.113Z,15.33
2018-05-02T19:23:52.214Z,21.97
2018-05-02T19:26:27.900Z,19.03
2018-05-02T19:28:56.271Z,20.57
2018-05-02T19:31:30.037Z,16.50
2018-05-02T19:33:59.001Z,21.30
2018-05-02T19:36:27.067Z,13.80
2018-05-02T19:38:55.185Z,13.87
2018-05-02T19:41:30.013Z,13.13
2018-05-02T19:44:02.813Z,18.90
2018-05-02T19:46:31.064Z,22.50
2018-05-02T19:48:59.123Z,13.10
2018-05-02T19:51:32.871Z,14.73
2018-05-02T19:54:01.392Z,15.20
2018-05-02T19:56:29.469Z,14.67
2018-05-02T19:58:57.537Z,15.27
2018-05-02T20:01:31.628Z,13.33
2018-05-02T20:04:00.519Z,15.63
2018-05-02T20:06:29.124Z,13.47
2018-05-02T20:09:02.889Z,14.57
2018-05-02T20:11:37.020Z,15.20
2018-05-02T20:14:07.731Z,14.00
2018-05-02T20:16:36.172Z,13.73
2018-05-02T20:19:04.344Z,17.07
2018-05-02T20:21:32.420Z,15.87
2018-05-02T20:24:01.307Z,16.97
2018-05-02T20:26:29.840Z,15.00
2018-05-02T20:28:57.910Z,13.93
2018-05-02T20:31:26.116Z,13.70
2018-05-02T20:33:54.184Z,13.23
2018-05-02T20:36:22.486Z,14.30
2018-05-02T20:38:50.944Z,13.87
2018-05-02T20:41:19.000Z,13.50
2018-05-02T20:43:47.084Z,16.87
2018-05-02T20:46:15.780Z,13.10
2018-05-02T20:48:43.854Z,15.40
2018-05-02T20:51:11.925Z,15.47
2018-05-02T20:53:40.593Z,17.60
2018-05-02T20:56:08.675Z,14.73
2018-05-02T20:58:36.738Z,16.60
2018-05-02T21:01:05.432Z,18.17
2018-05-02T21:03:33.525Z,19.10
2018-05-02T21:06:02.360Z,15.80
2018-05-02T21:08:30.865Z,16.87
2018-05-02T21:10:58.945Z,20.83
2018-05-02T21:13:27.013Z,21.63
2018-05-02T21:15:55.405Z,19.80
2018-05-02T21:18:23.495Z,17.43
2018-05-02T21:20:52.320Z,16.53
2018-05-02T21:23:20.523Z,17.03
2018-05-02T21:25:48.593Z,21.20
2018-05-02T21:28:16.761Z,24.50
2018-05-02T21:30:45.154Z,26.13
2018-05-02T21:33:13.228Z,23.87
2018-05-02T21:35:41.291Z,25.90
2018-05-02T21:38:09.672Z,23.97
2018-05-02T21:40:37.818Z,25.77
2018-05-02T21:43:05.796Z,25.83
2018-05-02T21:45:34.100Z,24.40
2018-05-02T21:48:02.172Z,26.10
2018-05-02T21:50:30.240Z,31.00
2018-05-02T21:52:58.398Z,25.40
2018-05-02T21:55:26.461Z,24.97
2018-05-02T21:57:54.522Z,26.97
2018-05-02T22:00:22.716Z,26.13
2018-05-02T22:02:50.781Z,25.90
2018-05-02T22:05:18.912Z,29.60
2018-05-02T22:07:47.370Z,28.17
2018-05-02T22:10:16.203Z,26.60
2018-05-02T22:12:44.279Z,27.40
2018-05-02T22:15:12.813Z,25.23
2018-05-02T22:17:41.639Z,26.67
2018-05-02T22:20:09.699Z,26.13
2018-05-02T22:22:38.085Z,32.07
2018-05-02T22:25:06.181Z,27.63
2018-05-02T22:27:34.256Z,25.07
2018-05-02T22:30:03.263Z,23.93
2018-05-02T22:32:31.289Z,21.57
2018-05-02T22:34:59.353Z,21.10
2018-05-02T22:37:27.602Z,28.20
2018-05-02T22:39:56.453Z,23.30
2018-05-02T22:42:26.335Z,26.03
2018-05-02T22:44:54.857Z,19.60
2018-05-02T22:47:22.935Z,20.30
2018-05-02T22:49:51.003Z,30.03
2018-05-02T22:52:19.690Z,23.83
2018-05-02T22:54:47.783Z,20.03
2018-05-02T22:57:17.046Z,22.90
2018-05-02T22:59:45.117Z,13.63
2018-05-02T23:02:13.199Z,16.93
2018-05-02T23:04:41.353Z,13.57
2018-05-02T23:07:09.421Z,12.63
2018-05-02T23:09:37.481Z,16.23
2018-05-02T23:12:06.131Z,16.40
2018-05-02T23:14:34.971Z,17.00
2018-05-02T23:17:03.038Z,17.83
2018-05-02T23:19:31.218Z,13.60
2018-05-02T23:21:59.296Z,13.20
2018-05-02T23:24:27.370Z,12.97
2018-05-02T23:26:56.073Z,15.13
2018-05-02T23:29:24.144Z,12.73
2018-05-02T23:31:52.672Z,14.33
2018-05-02T23:34:21.196Z,13.80
2018-05-02T23:36:49.270Z,14.10
2018-05-02T23:39:17.338Z,14.80
2018-05-02T23:41:45.722Z,14.83
2018-05-02T23:44:13.790Z,18.00
2018-05-02T23:46:41.848Z,15.23
2018-05-02T23:49:10.246Z,17.80
2018-05-02T23:51:38.314Z,16.47
2018-05-02T23:54:06.394Z,15.00
2018-05-02T23:56:34.560Z,15.40
2018-05-02T23:59:02.628Z,17.50
